Charleston, SC (29410)

11:34 PM EDT on September 15, 2014 (GMT -0400)
Park Circle | Change Station
CLOSE
Current Station
Personal Weather Station
Location: North Charleston, SC
Elevation: 20 ft
Nearby Weather Stations

Elev 20 ft 32.89 °N, 79.99 °W | Updated 4 seconds ago

Overcast
Overcast
75.1 °F
Feels Like 73 °F
N
0.0
Wind Variable Wind from North
Gusts 0.0 mph

Today
High -- | Low -- °F
--% Chance of Precip.
Yesterday
High -- | Low -- °F
Precip. -- in
7:03 AM 7:26 PM
Waning Gibbous, 49% visible
Pressure 30.12 in
Visibility 7.0 miles
Clouds Few 300 ft
Overcast 7000 ft
Heat Index 73 °F
Dew Point 74 °F
Humidity 98%
Rainfall 0.04 in
Snow Depth Not available.
UV 0 out of 12
Pollen 7.80 out of 12
Ozone Good
PM2.5 Good
Flu Activity Not available.
METAR KCHS 160256Z 00000KT 7SM FEW003 OVC070 25/23 A3013 RMK AO2 RAE32 SLP200 P0001 60003 T02500233 50002

More Conditions Fewer Conditions

Pressure 30.12 in
Visibility 7.0 miles
Clouds Few 300 ft
Overcast 7000 ft
Heat Index 73 °F
Dew Point 74 °F
Humidity 98%
Rainfall 0.04 in
Snow Depth Not available.
UV 0 out of 12
Pollen 7.80 out of 12
Ozone Good
PM2.5 Good
Flu Activity Not available.
METAR KCHS 160256Z 00000KT 7SM FEW003 OVC070 25/23 A3013 RMK AO2 RAE32 SLP200 P0001 60003 T02500233 50002

More Conditions Fewer Conditions

10-Day Weather Forecast

Almanac

Astronomy

Sep. 15, 2014 Rise Set
Actual Time 7:03 AM EDT 7:26 PM EDT
Civil Twilight 6:38 AM EDT 7:50 PM EDT
Nautical Twilight 6:09 AM EDT 8:19 PM EDT
Astronomical Twilight 5:40 AM EDT 8:49 PM EDT
Moon No Moon Rise 1:43 PM EDT (9/15)
Length of Visible Light 13h 12m
Length of Day
12h 22m
Tomorrow will be 2m 0s shorter.
Waning Gibbous, 49% of the Moon is Illuminated
Today
Waning Gibbous
Sep 24
New
Oct 1
First Quarter
Oct 8
Full
Oct 15
Last Quarter

Today's Extremes

State Highs State Lows

Community

WunderPhotos

Upload Photos

1,753,693 photos uploaded!

Nearby

Air Quality

  Air Quality AQ Index Pollutant
Yesterday Good
PM2.5
Yesterday Good
OZONE
Current Good
PM2.5
Current Good
OZONE
Monday Good
OZONE
Tuesday Good
OZONE

Snow Depth

Station Depth Elevation
No new snow has been reported.

Earthquake Activity

City Distance Mag. Time & Date
No recent earthquake activity has been reported nearby.
Minimum magnitude displayed is 2.5.

Coastal Water Temperatures

Place Temperature
No Stations Reporting

Nearby Weather Stations